Time;durP1;ratioP1;P1;durP2;ratioP2;P2;SDS_P1;SDS_P2;PMS_P1;PMS_P2;Temp;Humidity;BMP_temperature;BMP_pressure;BME280_temperature;BME280_humidity;BME280_pressure;Samples;Min_cycle;Max_cycle;Signal;HPM_P1;HPM_P2
2023/11/13 00:02:21;;;;;;;19.90;17.90;;;;;;;6.89;100.00;99817.92;111972;1247;22701;-77
2023/11/13 00:05:04;;;;;;;21.10;16.70;;;;;;;6.89;100.00;99820.52;112332;1242;21961;-78
2023/11/13 00:07:42;;;;;;;21.50;18.30;;;;;;;6.89;100.00;99824.48;112734;1242;21973;-78
2023/11/13 00:10:15;;;;;;;19.60;15.70;;;;;;;6.89;100.00;99824.31;111673;1248;21954;-77
2023/11/13 00:12:50;;;;;;;21.50;15.60;;;;;;;6.87;100.00;99823.50;111340;1252;23584;-77
2023/11/13 00:15:29;;;;;;;21.90;16.40;;;;;;;6.87;100.00;99825.61;111432;1250;21984;-78
2023/11/13 00:18:04;;;;;;;22.10;16.80;;;;;;;6.87;100.00;99830.43;111463;1249;22396;-77
2023/11/13 00:20:36;;;;;;;22.60;16.90;;;;;;;6.89;100.00;99830.02;111623;1249;21981;-77
2023/11/13 00:23:09;;;;;;;20.30;17.60;;;;;;;6.88;100.00;99831.09;111671;1250;21963;-77
2023/11/13 00:25:38;;;;;;;18.90;15.00;;;;;;;6.89;100.00;99829.85;111213;1248;21972;-76
2023/11/13 00:28:08;;;;;;;17.20;14.60;;;;;;;6.81;100.00;99826.45;111441;1241;23024;-77
2023/11/13 00:30:47;;;;;;;18.80;14.70;;;;;;;6.85;100.00;99835.88;111836;1245;21983;-78
2023/11/13 00:33:31;;;;;;;21.60;14.40;;;;;;;6.83;100.00;99840.23;112055;1245;22073;-77
2023/11/13 00:36:08;;;;;;;15.50;13.70;;;;;;;6.80;100.00;99841.02;111913;1245;23613;-78
2023/11/13 00:38:44;;;;;;;21.70;16.60;;;;;;;6.76;100.00;99839.23;112142;1245;23015;-77
2023/11/13 00:41:17;;;;;;;18.30;15.70;;;;;;;6.80;100.00;99843.09;111360;1251;23859;-76
2023/11/13 00:43:48;;;;;;;25.90;16.30;;;;;;;6.83;100.00;99848.36;111657;1245;23619;-77
2023/11/13 00:46:18;;;;;;;17.30;15.50;;;;;;;6.79;100.00;99841.55;111592;1251;22008;-78
2023/11/13 00:48:50;;;;;;;17.40;14.20;;;;;;;6.85;100.00;99852.80;111535;1251;21964;-77
2023/11/13 00:51:22;;;;;;;;;;;;;;;6.85;100.00;99854.71;111575;1251;22190;-76
2023/11/13 00:53:54;;;;;;;20.10;13.60;;;;;;;6.76;100.00;99854.29;111076;1253;21990;-77
2023/11/13 00:56:30;;;;;;;21.50;13.70;;;;;;;6.75;100.00;99853.98;111352;1253;23028;-76
2023/11/13 00:59:03;;;;;;;20.40;13.00;;;;;;;6.78;100.00;99851.10;111490;1246;21957;-78
2023/11/13 01:01:37;;;;;;;20.50;12.80;;;;;;;6.82;100.00;99852.39;111973;1246;24305;-77
2023/11/13 01:04:09;;;;;;;18.60;12.20;;;;;;;6.85;100.00;99855.05;112171;1241;21977;-78
2023/11/13 01:06:44;;;;;;;14.80;11.50;;;;;;;6.88;100.00;99853.05;112355;1241;21977;-78
2023/11/13 01:09:14;;;;;;;16.90;11.60;;;;;;;6.90;100.00;99844.00;112697;1241;22048;-77
2023/11/13 01:11:50;;;;;;;13.60;10.50;;;;;;;6.92;100.00;99843.76;113000;1234;23581;-76
2023/11/13 01:14:24;;;;;;;15.90;11.50;;;;;;;6.87;100.00;99840.27;112767;1239;23007;-76
2023/11/13 01:16:59;;;;;;;13.60;10.60;;;;;;;6.89;100.00;99843.86;112165;1244;21950;-78
2023/11/13 01:19:33;;;;;;;15.00;10.90;;;;;;;6.90;100.00;99841.06;112288;1244;22344;-78
2023/11/13 01:22:04;;;;;;;15.70;11.20;;;;;;;6.90;100.00;99840.02;112259;1244;23581;-79
2023/11/13 01:24:38;;;;;;;14.90;11.10;;;;;;;6.90;100.00;99845.06;112279;1244;21967;-78
2023/11/13 01:27:14;;;;;;;11.20;10.10;;;;;;;6.90;100.00;99847.63;112278;1244;22173;-76
2023/11/13 01:29:46;;;;;;;14.70;11.00;;;;;;;6.92;100.00;99847.41;112046;1244;22101;-78
2023/11/13 01:32:16;;;;;;;15.10;11.90;;;;;;;6.94;100.00;99843.90;112579;1239;21946;-77
2023/11/13 01:34:53;;;;;;;14.40;11.40;;;;;;;6.94;100.00;99839.70;112728;1233;24446;-76
2023/11/13 01:37:30;;;;;;;15.70;11.10;;;;;;;6.93;100.00;99839.06;112965;1238;23678;-77
2023/11/13 01:40:15;;;;;;;13.50;11.30;;;;;;;6.91;100.00;99841.04;113111;1238;21943;-76
2023/11/13 01:42:51;;;;;;;14.30;10.90;;;;;;;6.84;100.00;99830.35;112831;1238;23573;-77
2023/11/13 01:45:23;;;;;;;17.60;11.30;;;;;;;6.90;100.00;99842.80;113080;1238;23003;-76
2023/11/13 01:47:55;;;;;;;13.80;11.00;;;;;;;6.89;100.00;99842.98;113243;1238;23102;-78
2023/11/13 01:50:29;;;;;;;14.10;11.00;;;;;;;6.87;100.00;99837.89;113098;1238;22957;-78
2023/11/13 01:53:09;;;;;;;14.10;10.50;;;;;;;6.81;100.00;99831.47;112987;1238;22255;-76
2023/11/13 01:55:45;;;;;;;12.80;11.10;;;;;;;6.86;100.00;99843.24;112962;1234;23597;-76
2023/11/13 01:58:18;;;;;;;13.40;9.80;;;;;;;6.87;100.00;99839.61;113387;1234;21960;-76
2023/11/13 02:01:03;;;;;;;;;;;;;;;6.75;100.00;99821.11;113568;1234;23451;-77
2023/11/13 02:03:37;;;;;;;13.10;10.50;;;;;;;6.74;100.00;99835.84;113436;1234;23447;-78
2023/11/13 02:06:11;;;;;;;13.50;10.80;;;;;;;6.72;100.00;99834.88;113364;1234;21941;-76
2023/11/13 02:08:43;;;;;;;14.40;11.30;;;;;;;6.69;100.00;99836.31;113299;1234;21971;-77
2023/11/13 02:11:25;;;;;;;14.10;10.50;;;;;;;6.68;100.00;99837.06;113299;1234;22477;-77
2023/11/13 02:13:59;;;;;;;12.50;10.40;;;;;;;6.69;100.00;99842.58;113539;1233;23671;-77
2023/11/13 02:16:31;;;;;;;13.70;10.00;;;;;;;6.67;100.00;99837.63;113450;1230;21976;-77
2023/11/13 02:19:04;;;;;;;11.20;9.80;;;;;;;6.69;100.00;99839.45;112977;1238;21948;-76
2023/11/13 02:21:39;;;;;;;13.20;10.60;;;;;;;6.68;100.00;99837.77;112988;1238;22030;-76
2023/11/13 02:24:12;;;;;;;12.30;9.60;;;;;;;6.68;100.00;99835.33;112458;1244;22065;-76
2023/11/13 02:26:53;;;;;;;11.50;9.70;;;;;;;6.69;100.00;99833.77;112297;1244;24284;-77
2023/11/13 02:29:27;;;;;;;11.10;9.10;;;;;;;6.72;100.00;99832.45;112281;1244;21966;-78
2023/11/13 02:31:57;;;;;;;10.30;9.20;;;;;;;6.74;100.00;99832.40;111798;1248;22062;-78
2023/11/13 02:34:26;;;;;;;12.70;9.80;;;;;;;6.76;100.00;99831.99;111930;1248;22026;-77
2023/11/13 02:36:59;;;;;;;10.40;8.90;;;;;;;6.78;100.00;99828.11;112070;1244;23535;-77
2023/11/13 02:39:29;;;;;;;13.90;9.50;;;;;;;6.79;100.00;99829.46;112025;1244;21991;-78
2023/11/13 02:42:05;;;;;;;11.00;9.10;;;;;;;6.78;100.00;99829.47;111911;1243;23580;-77
2023/11/13 02:44:40;;;;;;;11.80;8.70;;;;;;;6.74;100.00;99829.95;112507;1243;21962;-78
2023/11/13 02:47:15;;;;;;;13.30;8.60;;;;;;;6.69;100.00;99824.59;112497;1243;21952;-79
2023/11/13 02:49:57;;;;;;;11.20;8.80;;;;;;;6.63;100.00;99821.98;112744;1241;21976;-77
2023/11/13 02:52:31;;;;;;;10.40;8.80;;;;;;;6.62;100.00;99819.26;112302;1244;23678;-77
2023/11/13 02:55:05;;;;;;;12.30;8.80;;;;;;;6.61;100.00;99822.05;112291;1244;23096;-78
2023/11/13 02:57:52;;;;;;;15.00;10.20;;;;;;;6.58;100.00;99822.31;112062;1244;23016;-79
2023/11/13 03:00:25;;;;;;;12.80;9.80;;;;;;;6.59;100.00;99827.63;112347;1239;24286;-76
2023/11/13 03:03:08;;;;;;;11.90;8.10;;;;;;;6.61;100.00;99832.08;112805;1239;21992;-77
2023/11/13 03:05:39;;;;;;;10.70;8.70;;;;;;;6.61;100.00;99836.05;112957;1239;21946;-78
2023/11/13 03:08:10;;;;;;;10.90;8.30;;;;;;;6.62;100.00;99841.21;113020;1239;23834;-79
2023/11/13 03:10:48;;;;;;;12.50;8.90;;;;;;;6.62;100.00;99839.14;113392;1234;23358;-77
2023/11/13 03:13:24;;;;;;;12.90;9.80;;;;;;;6.62;100.00;99835.50;113403;1234;21937;-78
2023/11/13 03:15:54;;;;;;;23.10;11.20;;;;;;;6.63;100.00;99832.00;113181;1234;21942;-76
2023/11/13 03:18:26;;;;;;;13.30;9.40;;;;;;;6.64;100.00;99831.13;113263;1234;21932;-77
2023/11/13 03:21:00;;;;;;;11.20;9.60;;;;;;;6.64;100.00;99828.52;113485;1234;21934;-77
2023/11/13 03:23:40;;;;;;;13.70;9.10;;;;;;;6.64;100.00;99824.20;113626;1232;22699;-76
2023/11/13 03:26:17;;;;;;;13.00;10.10;;;;;;;6.64;100.00;99824.20;113403;1234;21939;-77
2023/11/13 03:28:48;;;;;;;11.50;8.80;;;;;;;6.64;100.00;99822.48;113298;1234;22817;-78
2023/11/13 03:31:34;;;;;;;10.70;8.60;;;;;;;6.63;100.00;99823.02;113162;1234;23003;-78
2023/11/13 03:34:08;;;;;;;11.70;9.30;;;;;;;6.62;100.00;99819.43;113424;1234;21972;-77
2023/11/13 03:36:51;;;;;;;12.10;9.00;;;;;;;6.61;100.00;99818.61;113458;1234;22280;-77
2023/11/13 03:39:24;;;;;;;12.90;9.50;;;;;;;6.61;100.00;99824.13;112811;1241;23439;-76
2023/11/13 03:42:01;;;;;;;13.30;9.20;;;;;;;6.62;100.00;99821.52;112909;1241;22730;-76
2023/11/13 03:44:33;;;;;;;11.30;8.00;;;;;;;6.61;100.00;99823.08;112711;1241;21955;-79
2023/11/13 03:47:05;;;;;;;13.10;9.90;;;;;;;6.62;100.00;99827.55;112367;1241;24390;-77
2023/11/13 03:49:34;;;;;;;12.50;9.80;;;;;;;6.59;100.00;99824.88;112906;1237;23129;-76
2023/11/13 03:52:13;;;;;;;10.70;8.90;;;;;;;6.56;100.00;99819.25;112600;1241;21987;-79
2023/11/13 03:54:48;;;;;;;12.60;9.90;;;;;;;6.54;100.00;99820.36;112950;1241;21982;-78
2023/11/13 03:57:20;;;;;;;13.30;10.80;;;;;;;6.54;100.00;99822.77;113079;1234;22823;-76
2023/11/13 03:59:52;;;;;;;14.00;9.50;;;;;;;6.55;100.00;99821.89;113303;1234;22356;-77
2023/11/13 04:02:27;;;;;;;11.10;9.90;;;;;;;6.57;100.00;99821.13;113413;1231;22999;-76
2023/11/13 04:04:58;;;;;;;16.10;10.20;;;;;;;6.58;100.00;99821.95;112955;1240;22085;-78
2023/11/13 04:07:32;;;;;;;16.80;11.60;;;;;;;6.60;100.00;99822.61;112342;1244;21973;-77
2023/11/13 04:10:13;;;;;;;13.90;10.90;;;;;;;6.61;100.00;99816.88;112255;1244;23165;-77
2023/11/13 04:12:45;;;;;;;14.60;11.30;;;;;;;6.60;100.00;99816.02;111904;1249;23657;-75
2023/11/13 04:15:14;;;;;;;13.60;10.90;;;;;;;6.63;100.00;99813.88;111132;1253;23700;-77
2023/11/13 04:17:44;;;;;;;15.20;12.50;;;;;;;6.65;100.00;99815.55;111295;1253;23696;-77
2023/11/13 04:20:18;;;;;;;13.40;12.00;;;;;;;6.66;100.00;99822.60;110957;1257;23796;-77
2023/11/13 04:22:58;;;;;;;15.60;12.40;;;;;;;6.65;100.00;99828.00;111105;1253;21964;-77
2023/11/13 04:25:29;;;;;;;12.70;11.10;;;;;;;6.64;100.00;99827.65;111474;1251;23622;-77
2023/11/13 04:28:05;;;;;;;14.60;11.20;;;;;;;6.64;100.00;99827.30;111636;1251;23075;-77
2023/11/13 04:30:34;;;;;;;12.80;10.80;;;;;;;6.66;100.00;99826.74;111363;1249;23623;-77
2023/11/13 04:33:11;;;;;;;12.90;9.70;;;;;;;6.65;100.00;99827.81;111449;1250;22011;-77
2023/11/13 04:35:46;;;;;;;;;;;;;;;6.61;100.00;99820.48;111722;1249;22317;-77
2023/11/13 04:38:17;;;;;;;11.60;8.90;;;;;;;6.51;100.00;99829.44;111854;1245;22054;-77
2023/11/13 04:40:48;;;;;;;12.30;9.40;;;;;;;6.52;100.00;99831.66;112252;1245;21956;-78
2023/11/13 04:43:22;;;;;;;16.30;10.50;;;;;;;6.54;100.00;99833.17;112303;1245;22020;-77
2023/11/13 04:45:58;;;;;;;13.30;9.40;;;;;;;6.53;100.00;99836.12;111677;1249;21984;-78
2023/11/13 04:48:31;;;;;;;13.80;8.20;;;;;;;6.53;100.00;99845.80;112050;1245;21995;-77
2023/11/13 04:51:02;;;;;;;14.30;10.00;;;;;;;6.50;100.00;99849.00;112532;1239;21927;-76
2023/11/13 04:53:34;;;;;;;12.50;9.90;;;;;;;6.47;100.00;99850.98;112919;1239;21969;-77
2023/11/13 04:56:14;;;;;;;14.00;9.60;;;;;;;6.46;100.00;99852.23;112923;1239;21957;-77
2023/11/13 04:58:53;;;;;;;14.30;9.70;;;;;;;6.44;100.00;99848.98;112934;1240;21940;-78
2023/11/13 05:01:25;;;;;;;13.00;9.50;;;;;;;6.43;100.00;99845.91;112787;1240;21947;-78
2023/11/13 05:04:09;;;;;;;12.00;9.70;;;;;;;6.42;100.00;99850.08;112901;1239;21925;-76
2023/11/13 05:06:38;;;;;;;11.00;9.30;;;;;;;6.44;100.00;99850.91;113106;1239;21939;-77
2023/11/13 05:09:08;;;;;;;14.50;10.10;;;;;;;6.45;100.00;99847.95;113072;1230;23012;-76
2023/11/13 05:11:40;;;;;;;;;;;;;;;6.45;100.00;99848.62;113131;1239;22999;-78
2023/11/13 05:14:13;;;;;;;9.40;8.00;;;;;;;6.34;100.00;99850.31;112765;1239;21965;-76
2023/11/13 05:16:44;;;;;;;10.10;9.00;;;;;;;6.34;100.00;99847.20;113109;1239;21977;-77
2023/11/13 05:19:19;;;;;;;11.40;10.00;;;;;;;6.35;100.00;99851.70;113139;1239;21953;-76
2023/11/13 05:21:51;;;;;;;12.70;9.60;;;;;;;6.33;100.00;99852.79;113175;1234;23624;-75
2023/11/13 05:24:25;;;;;;;11.50;9.50;;;;;;;6.27;100.00;99853.12;113384;1235;23597;-76
2023/11/13 05:26:56;;;;;;;12.90;9.70;;;;;;;6.24;100.00;99855.45;113463;1235;21962;-76
2023/11/13 05:29:27;;;;;;;13.40;10.00;;;;;;;6.21;100.00;99858.27;113525;1235;21917;-78
2023/11/13 05:31:57;;;;;;;12.10;9.30;;;;;;;6.20;100.00;99862.80;113172;1227;23018;-75
2023/11/13 05:34:39;;;;;;;12.00;9.40;;;;;;;6.20;100.00;99863.14;113253;1234;21928;-77
2023/11/13 05:37:11;;;;;;;11.70;9.50;;;;;;;6.23;100.00;99860.98;113250;1234;21945;-77
2023/11/13 05:39:43;;;;;;;14.30;10.30;;;;;;;6.24;100.00;99873.92;113268;1235;23574;-76
2023/11/13 05:42:16;;;;;;;11.60;9.10;;;;;;;6.21;100.00;99875.22;113294;1234;23030;-77
2023/11/13 05:44:48;;;;;;;13.30;10.70;;;;;;;6.26;100.00;99886.48;113450;1234;21899;-77
2023/11/13 05:47:24;;;;;;;13.00;9.90;;;;;;;6.19;100.00;99871.14;113400;1234;23422;-77
2023/11/13 05:50:06;;;;;;;16.10;10.70;;;;;;;6.31;100.00;99889.64;113229;1236;22026;-76
2023/11/13 05:53:19;;;;;;;19.30;17.30;;;;;;;6.26;100.00;99887.53;113194;1234;23089;-77
2023/11/13 05:56:02;;;;;;;12.40;10.80;;;;;;;6.27;100.00;99893.38;113249;1234;23696;-77
2023/11/13 05:58:39;;;;;;;15.70;12.50;;;;;;;6.28;100.00;99894.72;113437;1234;21941;-78
2023/11/13 06:01:31;;;;;;;16.80;12.90;;;;;;;6.29;100.00;99895.92;113200;1234;21949;-78
2023/11/13 06:04:03;;;;;;;20.40;11.90;;;;;;;6.28;100.00;99897.49;112783;1240;23686;-78
2023/11/13 06:06:49;;;;;;;14.80;12.30;;;;;;;6.30;100.00;99897.09;112777;1240;21954;-78
2023/11/13 06:09:24;;;;;;;14.80;11.50;;;;;;;6.33;100.00;99894.95;112874;1240;22061;-78
2023/11/13 06:11:57;;;;;;;13.40;9.70;;;;;;;6.34;100.00;99895.25;111994;1246;22724;-77
2023/11/13 06:14:38;;;;;;;12.70;9.50;;;;;;;6.32;100.00;99897.20;111585;1251;22737;-78
2023/11/13 06:17:15;;;;;;;13.50;10.00;;;;;;;6.31;100.00;99897.74;111211;1255;23629;-77
2023/11/13 06:19:59;;;;;;;13.70;9.40;;;;;;;6.35;100.00;99897.84;111067;1255;22038;-78
2023/11/13 06:22:34;;;;;;;20.70;14.80;;;;;;;6.35;100.00;99898.50;111432;1250;23711;-77
2023/11/13 06:25:14;;;;;;;19.70;14.30;;;;;;;6.33;100.00;99899.26;111066;1256;23636;-77
2023/11/13 06:27:53;;;;;;;13.10;11.20;;;;;;;6.33;100.00;99899.27;111042;1256;22454;-77
2023/11/13 06:30:27;;;;;;;12.20;10.20;;;;;;;6.34;100.00;99903.55;111174;1250;23603;-77
2023/11/13 06:33:07;;;;;;;17.60;10.00;;;;;;;6.35;100.00;99898.34;111834;1246;23565;-76
2023/11/13 06:35:45;;;;;;;17.90;10.90;;;;;;;6.36;100.00;99905.58;112384;1241;21947;-78
2023/11/13 06:38:19;;;;;;;16.30;10.70;;;;;;;6.35;100.00;99904.21;112656;1241;21960;-79
2023/11/13 06:40:55;;;;;;;13.60;10.80;;;;;;;6.35;100.00;99904.38;112761;1241;23692;-76
2023/11/13 06:43:33;;;;;;;52.80;42.50;;;;;;;6.33;100.00;99904.60;112703;1234;22861;-78
2023/11/13 06:46:06;;;;;;;26.60;19.90;;;;;;;6.36;100.00;99910.23;113295;1234;21962;-78
2023/11/13 06:48:43;;;;;;;21.20;15.70;;;;;;;6.38;100.00;99912.80;112910;1234;23112;-79
2023/11/13 06:51:19;;;;;;;22.50;15.40;;;;;;;6.41;100.00;99913.75;112612;1239;21966;-78
2023/11/13 06:53:52;;;;;;;18.60;16.70;;;;;;;6.45;100.00;99922.79;112436;1239;21961;-77
2023/11/13 06:56:31;;;;;;;21.20;17.20;;;;;;;6.48;100.00;99919.41;112986;1239;21955;-77
2023/11/13 06:59:05;;;;;;;18.80;14.30;;;;;;;6.50;100.00;99919.01;112377;1239;22006;-78
2023/11/13 07:02:02;;;;;;;21.70;16.00;;;;;;;6.50;100.00;99922.48;112787;1239;21955;-76
2023/11/13 07:04:49;;;;;;;20.20;17.70;;;;;;;6.48;100.00;99927.03;112416;1239;24373;-76
2023/11/13 07:07:25;;;;;;;21.40;18.10;;;;;;;6.51;100.00;99928.48;112168;1246;21999;-78
2023/11/13 07:10:19;;;;;;;22.20;19.10;;;;;;;6.56;100.00;99929.56;112207;1242;21981;-77
2023/11/13 07:13:01;;;;;;;22.10;18.40;;;;;;;6.58;100.00;99924.14;111849;1248;23021;-79
2023/11/13 07:15:35;;;;;;;21.30;17.60;;;;;;;6.67;100.00;99934.96;111279;1253;21999;-77
2023/11/13 07:18:15;;;;;;;20.80;16.30;;;;;;;6.70;100.00;99934.38;110947;1257;22031;-78
2023/11/13 07:21:02;;;;;;;26.90;17.90;;;;;;;6.69;100.00;99942.50;110801;1257;23032;-76
2023/11/13 07:23:41;;;;;;;23.50;20.30;;;;;;;6.68;100.00;99943.05;110873;1257;22869;-79
2023/11/13 07:26:30;;;;;;;32.30;25.00;;;;;;;6.68;100.00;99940.11;111355;1251;22981;-77
2023/11/13 07:29:07;;;;;;;24.10;18.30;;;;;;;6.73;100.00;99942.23;111498;1251;22326;-78
2023/11/13 07:31:50;;;;;;;25.90;16.20;;;;;;;6.79;100.00;99943.95;111968;1244;24354;-76
2023/11/13 07:34:38;;;;;;;19.90;15.90;;;;;;;6.87;100.00;99942.02;112650;1239;21951;-77
2023/11/13 07:37:08;;;;;;;18.70;15.30;;;;;;;6.93;100.00;99946.50;112320;1241;22701;-76
2023/11/13 07:39:39;;;;;;;18.10;15.60;;;;;;;6.99;100.00;99953.23;112608;1240;21949;-76
2023/11/13 07:42:17;;;;;;;18.80;14.20;;;;;;;6.96;100.00;99949.34;112149;1245;23085;-75
2023/11/13 07:44:49;;;;;;;24.00;13.90;;;;;;;6.96;100.00;99949.70;111958;1245;23714;-76
2023/11/13 07:47:27;;;;;;;15.80;12.70;;;;;;;6.98;100.00;99949.30;112159;1245;21979;-77
2023/11/13 07:50:02;;;;;;;14.60;11.80;;;;;;;6.99;100.00;99948.91;111909;1245;21980;-76
2023/11/13 07:52:36;;;;;;;16.30;10.00;;;;;;;6.98;100.00;99951.35;112233;1245;21970;-77
2023/11/13 07:55:18;;;;;;;16.60;11.60;;;;;;;7.01;100.00;99949.89;112137;1240;23547;-78
2023/11/13 07:57:52;;;;;;;16.50;11.40;;;;;;;7.08;100.00;99951.08;112458;1239;24271;-78
2023/11/13 08:00:24;;;;;;;20.90;12.00;;;;;;;7.11;100.00;99950.64;112414;1241;23680;-76
2023/11/13 08:02:59;;;;;;;21.40;17.50;;;;;;;7.16;100.00;99950.48;112346;1241;21953;-76
2023/11/13 08:05:28;;;;;;;22.20;15.70;;;;;;;7.19;100.00;99946.07;112807;1240;21939;-77
2023/11/13 08:07:59;;;;;;;23.30;16.40;;;;;;;7.20;100.00;99947.10;112393;1240;23610;-78
2023/11/13 08:10:31;;;;;;;29.10;17.70;;;;;;;7.20;100.00;99938.60;112289;1240;21955;-76
2023/11/13 08:13:14;;;;;;;25.20;19.00;;;;;;;7.20;100.00;99935.30;112793;1240;22225;-80
2023/11/13 08:15:44;;;;;;;29.80;20.30;;;;;;;7.21;100.00;99934.23;113042;1241;21973;-80
2023/11/13 08:18:23;;;;;;;18.00;14.80;;;;;;;7.27;100.00;99932.67;113041;1236;21926;-80
2023/11/13 08:20:53;;;;;;;20.20;16.30;;;;;;;7.34;100.00;99932.81;113302;1234;21957;-79
2023/11/13 08:23:28;;;;;;;17.00;13.00;;;;;;;7.41;100.00;99932.77;113414;1235;21968;-79
2023/11/13 08:26:06;;;;;;;13.10;10.90;;;;;;;7.48;100.00;99931.32;113299;1234;22303;-78
2023/11/13 08:28:39;;;;;;;16.00;11.20;;;;;;;7.56;100.00;99928.30;112280;1242;21958;-81
2023/11/13 08:31:16;;;;;;;12.80;10.70;;;;;;;7.64;100.00;99925.96;112066;1247;23069;-80
2023/11/13 08:33:47;;;;;;;16.70;10.30;;;;;;;7.72;100.00;99923.09;109212;1247;23031;-80
2023/11/13 08:36:26;;;;;;;15.20;10.00;;;;;;;7.79;100.00;99923.75;112186;1247;22040;-79
2023/11/13 08:38:55;;;;;;;16.60;13.30;;;;;;;7.83;100.00;99922.59;111910;1247;23616;-79
2023/11/13 08:41:33;;;;;;;12.70;10.40;;;;;;;7.87;100.00;99922.61;111705;1252;21807;-78
2023/11/13 08:44:04;;;;;;;19.30;11.70;;;;;;;7.86;100.00;99916.56;111525;1251;23616;-79
2023/11/13 08:46:39;;;;;;;14.00;10.80;;;;;;;7.87;100.00;99923.66;111451;1246;21979;-77
2023/11/13 08:49:14;;;;;;;12.90;10.00;;;;;;;7.85;100.00;99925.44;112145;1241;21970;-76
2023/11/13 08:51:45;;;;;;;18.70;10.70;;;;;;;7.84;100.00;99927.23;111648;1245;21949;-77
2023/11/13 08:54:20;;;;;;;15.20;12.10;;;;;;;7.81;100.00;99929.38;111985;1245;21965;-78
2023/11/13 08:56:57;;;;;;;25.40;17.00;;;;;;;7.78;100.00;99932.95;112140;1245;21945;-78
2023/11/13 08:59:34;;;;;;;23.90;16.00;;;;;;;7.71;100.00;99935.61;111503;1246;21986;-78
2023/11/13 09:02:06;;;;;;;20.50;14.40;;;;;;;7.68;100.00;99937.27;112155;1245;23020;-77
2023/11/13 09:04:38;;;;;;;24.80;16.70;;;;;;;7.65;100.00;99940.48;112232;1245;23053;-77
2023/11/13 09:07:16;;;;;;;;;;;;;;;7.64;100.00;99941.03;111506;1250;23619;-77
2023/11/13 09:09:55;;;;;;;21.00;16.30;;;;;;;7.55;100.00;99937.50;111481;1246;22947;-78
2023/11/13 09:12:38;;;;;;;22.10;14.70;;;;;;;7.55;100.00;99935.96;111901;1245;23743;-78
2023/11/13 09:15:21;;;;;;;31.90;24.20;;;;;;;7.58;100.00;99937.59;111972;1245;22852;-79
2023/11/13 09:18:06;;;;;;;22.50;15.30;;;;;;;7.64;100.00;99938.60;112118;1241;22944;-77
2023/11/13 09:20:44;;;;;;;16.40;12.60;;;;;;;7.67;100.00;99939.73;112537;1241;21950;-78
2023/11/13 09:23:20;;;;;;;18.30;13.50;;;;;;;7.59;100.00;99922.66;111727;1247;21911;-79
2023/11/13 09:25:52;;;;;;;18.60;13.80;;;;;;;7.71;100.00;99933.16;112251;1242;22963;-79
2023/11/13 09:28:43;;;;;;;19.40;12.40;;;;;;;7.76;100.00;99933.73;112540;1241;22184;-76
2023/11/13 09:31:18;;;;;;;22.50;13.50;;;;;;;7.83;100.00;99938.17;112356;1241;21995;-78
2023/11/13 09:33:47;;;;;;;18.10;12.70;;;;;;;7.87;100.00;99935.09;112589;1242;22829;-79
2023/11/13 09:36:17;;;;;;;17.40;12.10;;;;;;;7.89;100.00;99941.10;112593;1241;21950;-81
2023/11/13 09:38:55;;;;;;;19.90;12.90;;;;;;;7.94;100.00;99942.65;112094;1248;22044;-79
2023/11/13 09:41:32;;;;;;;16.30;12.60;;;;;;;8.03;100.00;99946.01;112306;1241;22708;-81
2023/11/13 09:44:51;;;;;;;21.10;13.40;;;;;;;8.11;100.00;99944.33;111894;1247;23751;-79
2023/11/13 09:48:01;;;;;;;20.70;13.90;;;;;;;8.18;100.00;99944.61;112248;1247;21998;-81
2023/11/13 09:50:58;;;;;;;14.90;10.80;;;;;;;8.23;100.00;99950.86;111997;1247;21980;-82
2023/11/13 09:54:14;;;;;;;19.40;12.50;;;;;;;8.26;100.00;99949.71;112062;1247;21979;-81
2023/11/13 09:57:01;;;;;;;17.50;11.50;;;;;;;8.32;100.00;99956.10;112504;1240;22018;-81
2023/11/13 09:59:52;;;;;;;12.00;9.90;;;;;;;8.38;100.00;99954.85;112941;1241;21981;-81
2023/11/13 10:02:28;;;;;;;15.00;11.10;;;;;;;8.46;100.00;99952.15;112896;1234;23597;-81
2023/11/13 10:05:07;;;;;;;14.10;11.40;;;;;;;8.56;100.00;99946.09;112844;1241;21971;-79
2023/11/13 10:07:59;;;;;;;18.40;11.70;;;;;;;8.67;100.00;99942.38;112286;1241;21957;-81
2023/11/13 10:10:42;;;;;;;14.20;11.10;;;;;;;8.78;100.00;99941.28;112847;1241;23798;-81
2023/11/13 10:13:23;;;;;;;18.20;10.60;;;;;;;8.88;100.00;99937.63;112737;1241;22340;-81
2023/11/13 10:16:27;;;;;;;25.40;20.70;;;;;;;8.93;100.00;99935.02;112776;1241;24337;-82
2023/11/13 10:19:16;;;;;;;17.70;12.50;;;;;;;8.95;100.00;99935.45;112518;1241;22468;-80
2023/11/13 10:21:57;;;;;;;20.10;13.20;;;;;;;8.98;100.00;99933.10;112724;1241;21975;-81
2023/11/13 10:24:38;;;;;;;14.30;10.30;;;;;;;9.03;100.00;99930.30;113601;1234;23063;-81
2023/11/13 10:27:32;;;;;;;14.20;10.00;;;;;;;9.11;100.00;99929.12;112844;1239;21953;-80
2023/11/13 10:30:10;;;;;;;21.10;13.40;;;;;;;9.23;100.00;99927.63;112749;1239;22937;-80
2023/11/13 10:32:54;;;;;;;17.30;13.10;;;;;;;9.33;100.00;99924.95;112828;1239;21990;-80
2023/11/13 10:35:39;;;;;;;20.10;16.00;;;;;;;9.40;100.00;99926.79;113070;1239;22409;-80
2023/11/13 10:38:22;;;;;;;20.60;15.70;;;;;;;9.45;100.00;99922.09;112931;1239;21967;-79
2023/11/13 10:41:03;;;;;;;21.60;16.60;;;;;;;9.51;100.00;99916.30;112528;1239;22441;-81
2023/11/13 10:43:52;;;;;;;15.20;12.50;;;;;;;9.56;100.00;99909.81;113018;1239;23777;-79
2023/11/13 10:46:36;;;;;;;21.30;14.30;;;;;;;9.58;100.00;99907.31;113403;1230;23709;-80
2023/11/13 10:49:23;;;;;;;16.50;13.30;;;;;;;9.60;100.00;99907.74;112432;1244;22269;-79
2023/11/13 10:51:59;;;;;;;18.60;13.60;;;;;;;9.68;100.00;99910.73;112767;1241;23831;-81
2023/11/13 10:54:35;;;;;;;14.80;10.80;;;;;;;9.77;100.00;99907.76;112492;1240;23578;-80
2023/11/13 10:57:12;;;;;;;17.90;11.40;;;;;;;9.82;100.00;99898.52;112668;1241;21985;-81
2023/11/13 11:00:15;;;;;;;12.00;8.90;;;;;;;9.89;100.00;99896.64;112744;1241;21944;-78
2023/11/13 11:02:54;;;;;;;12.70;10.20;;;;;;;10.00;100.00;99896.23;112547;1240;22088;-80
2023/11/13 11:05:39;;;;;;;11.30;9.60;;;;;;;10.07;100.00;99891.52;113020;1241;21941;-79
2023/11/13 11:08:17;;;;;;;12.80;8.20;;;;;;;10.29;100.00;99883.30;112968;1240;21933;-78
2023/11/13 11:11:03;;;;;;;14.00;9.60;;;;;;;10.49;100.00;99875.66;112577;1244;21983;-78
2023/11/13 11:14:03;;;;;;;14.10;8.20;;;;;;;10.71;100.00;99872.38;112525;1244;22154;-80
2023/11/13 11:16:58;;;;;;;11.30;9.10;;;;;;;10.94;100.00;99873.94;112184;1244;21934;-82
2023/11/13 11:19:47;;;;;;;9.30;7.70;;;;;;;11.01;100.00;99873.09;111638;1249;22011;-79
2023/11/13 11:22:32;;;;;;;8.70;6.00;;;;;;;10.92;100.00;99865.49;111382;1255;23690;-80
2023/11/13 11:25:47;;;;;;;7.50;4.40;;;;;;;10.80;100.00;99864.98;111519;1255;21982;-81
2023/11/13 11:29:08;;;;;;;7.80;4.90;;;;;;;10.64;100.00;99861.91;111588;1245;22591;-78
2023/11/13 11:31:48;;;;;;;7.20;5.50;;;;;;;10.50;100.00;99857.16;111191;1254;23723;-80
2023/11/13 11:34:23;;;;;;;8.30;5.80;;;;;;;10.46;100.00;99857.17;111393;1254;21986;-81
2023/11/13 11:37:16;;;;;;;7.90;5.70;;;;;;;10.43;100.00;99859.40;111392;1251;21985;-79
2023/11/13 11:39:55;;;;;;;13.20;7.10;;;;;;;10.40;100.00;99865.61;111809;1247;23020;-80
2023/11/13 11:42:35;;;;;;;8.40;5.00;;;;;;;10.36;100.00;99863.35;111762;1249;21970;-79
2023/11/13 11:45:10;;;;;;;7.00;4.40;;;;;;;10.28;100.00;99855.67;111219;1255;21987;-80
2023/11/13 11:47:57;;;;;;;5.50;4.00;;;;;;;10.25;100.00;99850.42;110797;1261;21956;-82
2023/11/13 11:50:33;;;;;;;5.70;4.20;;;;;;;10.23;100.00;99850.84;110883;1256;21974;-81
2023/11/13 11:53:20;;;;;;;8.10;3.80;;;;;;;10.22;100.00;99850.39;111077;1257;22185;-80
2023/11/13 11:56:07;;;;;;;7.20;4.50;;;;;;;10.19;100.00;99849.79;110775;1261;22024;-79
2023/11/13 11:58:42;;;;;;;5.30;4.40;;;;;;;10.20;100.00;99849.59;111068;1257;23691;-79
2023/11/13 12:01:17;;;;;;;7.10;4.40;;;;;;;10.11;100.00;99844.25;111415;1253;23784;-79